Time;durP1;ratioP1;P1;durP2;ratioP2;P2;SDS_P1;SDS_P2;PMS_P1;PMS_P2;Temp;Humidity;BMP_temperature;BMP_pressure;BME280_temperature;BME280_humidity;BME280_pressure;Samples;Min_cycle;Max_cycle;Signal;HPM_P1;HPM_P2
2023/10/20 00:02:53;;;;;;;131.50;69.18;;;8.90;99.90;;;;;;5011781;28;20499;-80
2023/10/20 00:05:38;;;;;;;131.68;67.25;;;8.70;99.90;;;;;;5036764;28;20047;-80
2023/10/20 00:08:18;;;;;;;140.43;73.78;;;8.70;99.90;;;;;;5035719;28;20033;-79
2023/10/20 00:11:20;;;;;;;;;;;;;;;;;;;;;
2023/10/20 00:13:45;;;;;;;130.02;65.32;;;8.80;99.90;;;;;;5045974;28;20386;-80
2023/10/20 00:17:00;;;;;;;137.50;72.07;;;8.80;99.90;;;;;;5035824;28;20029;-80
2023/10/20 00:19:29;;;;;;;142.63;73.20;;;8.80;99.90;;;;;;4984760;28;20052;-79
2023/10/20 00:22:20;;;;;;;138.82;70.65;;;8.70;99.90;;;;;;5041168;28;20052;-81
2023/10/20 00:24:57;;;;;;;;;;;;;;;;;;;;;
2023/10/20 00:27:57;;;;;;;153.55;74.45;;;8.70;99.90;;;;;;5065481;28;20113;-81
2023/10/20 00:32:05;;;;;;;167.18;75.28;;;8.70;99.90;;;;;;5025899;28;20040;-81
2023/10/20 00:35:07;;;;;;;166.65;79.47;;;8.70;99.90;;;;;;5026620;28;20111;-81
2023/10/20 00:38:03;;;;;;;169.68;77.72;;;8.60;99.90;;;;;;5045567;28;20044;-79
2023/10/20 00:40:45;;;;;;;171.82;80.38;;;8.50;99.90;;;;;;5050917;28;20040;-81
2023/10/20 00:43:50;;;;;;;158.30;75.40;;;8.60;99.90;;;;;;5070857;28;20111;-79
2023/10/20 00:47:03;;;;;;;;;;;;;;;;;;;;;
2023/10/20 00:50:12;;;;;;;162.30;74.80;;;8.60;99.90;;;;;;5064943;28;20079;-80
2023/10/20 00:53:01;;;;;;;165.13;73.25;;;8.60;99.90;;;;;;5045826;28;20162;-80
2023/10/20 00:55:54;;;;;;;166.13;72.68;;;8.60;99.90;;;;;;5045493;28;20033;-80
2023/10/20 00:58:59;;;;;;;178.40;79.13;;;8.60;99.90;;;;;;5051828;28;20502;-80
2023/10/20 01:01:40;;;;;;;171.57;77.50;;;8.60;99.90;;;;;;5035742;28;20051;-80
2023/10/20 01:04:19;;;;;;;179.40;79.18;;;8.60;99.90;;;;;;5020850;28;20041;-79
2023/10/20 01:06:56;;;;;;;171.10;77.07;;;8.60;99.90;;;;;;5050547;28;20130;-80
2023/10/20 01:09:26;;;;;;;160.10;73.65;;;8.60;99.90;;;;;;5043509;28;20037;-80
2023/10/20 01:12:26;;;;;;;172.30;79.35;;;8.60;99.90;;;;;;5064871;28;20499;-80
2023/10/20 01:15:00;;;;;;;156.05;71.47;;;8.60;99.90;;;;;;5051883;28;20356;-80
2023/10/20 01:17:44;;;;;;;150.38;68.03;;;8.70;99.90;;;;;;5043938;28;20129;-79
2023/10/20 01:20:37;;;;;;;148.13;70.28;;;8.60;99.90;;;;;;5052387;28;20049;-79
2023/10/20 01:23:22;;;;;;;147.60;70.75;;;8.60;99.90;;;;;;5042358;28;20036;-79
2023/10/20 01:26:29;;;;;;;153.82;69.32;;;8.60;99.90;;;;;;5060843;28;20115;-80
2023/10/20 01:29:12;;;;;;;164.15;75.88;;;8.60;99.90;;;;;;5067995;28;20406;-79
2023/10/20 01:31:59;;;;;;;149.07;75.07;;;8.50;99.90;;;;;;5035218;28;20522;-80
2023/10/20 01:34:35;;;;;;;185.75;79.10;;;8.50;99.90;;;;;;5035307;28;20040;-80
2023/10/20 01:37:04;;;;;;;139.77;67.20;;;8.50;99.90;;;;;;5046591;28;20045;-82
2023/10/20 01:46:31;;;;;;;;;;;;;;;;;;;;;
2023/10/20 01:49:44;;;;;;;;;;;;;;;;;;;;;
2023/10/20 01:52:16;;;;;;;144.13;65.28;;;8.50;99.90;;;;;;5055413;28;20033;-80
2023/10/20 01:58:41;;;;;;;154.80;75.22;;;8.50;99.90;;;;;;5026839;28;20068;-80
2023/10/20 02:01:37;;;;;;;167.57;73.97;;;8.50;99.90;;;;;;5035462;28;20043;-80
2023/10/20 02:04:36;;;;;;;143.82;68.93;;;8.50;99.90;;;;;;5034986;28;20055;-79
2023/10/20 02:07:22;;;;;;;;;;;;;;;;;;;;;
2023/10/20 02:10:06;;;;;;;139.30;64.28;;;8.50;99.90;;;;;;5070850;28;20568;-79
2023/10/20 02:12:51;;;;;;;150.10;69.35;;;8.50;99.90;;;;;;5050100;28;20037;-80
2023/10/20 02:15:27;;;;;;;135.77;65.28;;;8.50;99.90;;;;;;5014523;28;20042;-79
2023/10/20 02:18:05;;;;;;;149.32;69.97;;;8.50;99.90;;;;;;5030443;28;20051;-80
2023/10/20 02:24:38;;;;;;;169.35;77.03;;;8.50;99.90;;;;;;5009930;28;20123;-80
2023/10/20 02:27:32;;;;;;;156.05;71.47;;;8.50;99.90;;;;;;5051860;28;20387;-81
2023/10/20 02:30:58;;;;;;;152.10;71.75;;;8.50;99.90;;;;;;5034871;28;20037;-80
2023/10/20 02:33:57;;;;;;;154.13;71.70;;;8.50;99.90;;;;;;5039485;28;20045;-81
2023/10/20 02:37:00;;;;;;;146.27;69.60;;;8.40;99.90;;;;;;5035099;28;20075;-79
2023/10/20 02:39:55;;;;;;;155.00;70.90;;;8.50;99.90;;;;;;5055731;28;20497;-79
2023/10/20 02:42:43;;;;;;;130.93;64.60;;;8.40;99.90;;;;;;5039275;28;20387;-79
2023/10/20 02:45:20;;;;;;;133.18;64.63;;;8.40;99.90;;;;;;5037154;28;20032;-81
2023/10/20 02:48:12;;;;;;;155.10;71.15;;;8.40;99.90;;;;;;5034440;28;20495;-81
2023/10/20 02:51:02;;;;;;;153.60;73.32;;;8.40;99.90;;;;;;5038087;28;20033;-80
2023/10/20 02:53:51;;;;;;;145.48;69.00;;;8.40;99.90;;;;;;5034597;28;20057;-80
2023/10/20 02:56:37;;;;;;;153.40;73.35;;;8.40;99.90;;;;;;5038546;28;20033;-79
2023/10/20 02:59:15;;;;;;;148.95;68.13;;;8.40;99.90;;;;;;5026992;28;20411;-81
2023/10/20 03:01:55;;;;;;;156.23;70.82;;;8.40;99.90;;;;;;5045138;28;20033;-80
2023/10/20 03:08:14;;;;;;;166.15;74.65;;;8.40;99.90;;;;;;5056599;28;20041;-80
2023/10/20 03:11:14;;;;;;;164.02;72.25;;;8.40;99.90;;;;;;5041998;28;20037;-80
2023/10/20 03:14:05;;;;;;;146.40;67.10;;;8.30;99.90;;;;;;5039256;28;20116;-79
2023/10/20 03:17:12;;;;;;;140.82;65.03;;;8.30;99.90;;;;;;5040673;28;20048;-79
2023/10/20 03:20:43;;;;;;;159.27;74.15;;;8.40;99.90;;;;;;5046394;28;20052;-80
2023/10/20 03:23:25;;;;;;;150.88;70.43;;;8.30;99.90;;;;;;5063665;28;20068;-83
2023/10/20 03:26:24;;;;;;;162.70;75.20;;;8.30;99.90;;;;;;5040259;28;20039;-81
2023/10/20 03:29:08;;;;;;;164.10;76.70;;;8.30;99.90;;;;;;5043927;28;20044;-81
2023/10/20 03:32:08;;;;;;;153.95;73.18;;;8.30;99.90;;;;;;5049788;28;20079;-81
2023/10/20 03:35:01;;;;;;;155.07;76.18;;;8.30;99.90;;;;;;5047578;28;20052;-81
2023/10/20 03:38:27;;;;;;;;;;;;;;;;;;;;;
2023/10/20 03:42:06;;;;;;;153.50;73.75;;;8.30;99.90;;;;;;4962359;28;20043;-80
2023/10/20 03:45:15;;;;;;;119.45;64.72;;;8.30;99.90;;;;;;5053061;28;20051;-80
2023/10/20 03:48:00;;;;;;;133.75;70.57;;;8.30;99.90;;;;;;5057200;28;20044;-80
2023/10/20 03:54:47;;;;;;;126.50;68.38;;;8.30;99.90;;;;;;4919866;28;20032;-80
2023/10/20 04:05:31;;;;;;;;;;;;;;;;;;;;;
2023/10/20 04:11:52;;;;;;;115.57;60.88;;;8.30;99.90;;;;;;4956707;28;20183;-81
2023/10/20 04:15:00;;;;;;;133.30;70.90;;;8.30;99.90;;;;;;4977471;28;20489;-81
2023/10/20 04:17:30;;;;;;;114.70;62.33;;;8.30;99.90;;;;;;4983359;28;20060;-80
2023/10/20 04:20:27;;;;;;;104.25;56.95;;;8.20;99.90;;;;;;5009983;28;20124;-82
2023/10/20 04:27:21;;;;;;;114.53;61.45;;;8.20;99.90;;;;;;5045868;28;20049;-81
2023/10/20 04:52:07;;;;;;;83.90;48.22;;;8.20;99.90;;;;;;5031925;28;20410;-77
2023/10/20 04:54:45;;;;;;;97.78;53.67;;;8.20;99.90;;;;;;5029682;28;20042;-77
2023/10/20 05:02:39;;;;;;;113.03;58.25;;;8.20;99.90;;;;;;5027520;28;20065;-76
2023/10/20 05:05:26;;;;;;;96.78;56.08;;;8.30;99.90;;;;;;5002475;28;20037;-76
2023/10/20 05:07:53;;;;;;;97.78;54.80;;;8.20;99.90;;;;;;5021593;28;20445;-77
2023/10/20 05:10:19;;;;;;;88.88;50.83;;;8.20;99.90;;;;;;5006457;28;20081;-76
2023/10/20 05:12:48;;;;;;;88.03;50.65;;;8.20;99.90;;;;;;5011664;28;20116;-77
2023/10/20 05:15:14;;;;;;;98.10;57.17;;;8.20;99.90;;;;;;5011294;28;20045;-77
2023/10/20 05:17:40;;;;;;;90.45;50.45;;;8.20;99.90;;;;;;4995209;28;20038;-77
2023/10/20 05:20:09;;;;;;;91.70;53.38;;;8.20;99.90;;;;;;5011673;28;20403;-76
2023/10/20 05:22:35;;;;;;;91.38;55.00;;;8.20;99.90;;;;;;5030382;28;20403;-78
2023/10/20 05:25:02;;;;;;;102.20;57.85;;;8.20;99.90;;;;;;5014515;28;20044;-76
2023/10/20 05:27:28;;;;;;;86.45;54.05;;;8.20;99.90;;;;;;5031112;28;20041;-77
2023/10/20 05:29:53;;;;;;;98.47;55.10;;;8.20;99.90;;;;;;5031174;28;20042;-77
2023/10/20 05:32:19;;;;;;;92.93;56.15;;;8.20;99.90;;;;;;5015139;28;20045;-76
2023/10/20 05:34:44;;;;;;;77.45;48.35;;;8.20;99.90;;;;;;5026941;28;20464;-77
2023/10/20 05:37:10;;;;;;;72.63;46.45;;;8.20;99.90;;;;;;5022743;28;20411;-77
2023/10/20 05:39:36;;;;;;;73.40;47.28;;;8.20;99.90;;;;;;5013369;28;20056;-77
2023/10/20 05:42:04;;;;;;;74.03;47.70;;;8.20;99.90;;;;;;5031375;28;20076;-77
2023/10/20 05:44:33;;;;;;;74.88;48.33;;;8.20;99.90;;;;;;5024381;28;20067;-76
2023/10/20 05:46:59;;;;;;;76.53;50.53;;;8.20;99.90;;;;;;5028237;28;20041;-76
2023/10/20 05:49:26;;;;;;;78.93;51.42;;;8.20;99.90;;;;;;5029245;28;20033;-78
2023/10/20 05:51:51;;;;;;;72.25;48.05;;;8.20;99.90;;;;;;5007368;28;20079;-77
2023/10/20 05:54:18;;;;;;;64.15;45.83;;;8.20;99.90;;;;;;5013558;28;20033;-76
2023/10/20 05:56:43;;;;;;;68.00;46.58;;;8.20;99.90;;;;;;5022843;28;20041;-77
2023/10/20 05:59:09;;;;;;;62.15;44.00;;;8.20;99.90;;;;;;5023156;28;20037;-77
2023/10/20 06:01:35;;;;;;;68.22;46.40;;;8.20;99.90;;;;;;5019380;28;20034;-76
2023/10/20 06:04:01;;;;;;;66.47;47.38;;;8.20;99.90;;;;;;5030678;28;20148;-77
2023/10/20 06:06:26;;;;;;;65.13;46.00;;;8.20;99.90;;;;;;5030777;28;20049;-78
2023/10/20 06:08:52;;;;;;;69.53;47.55;;;8.20;99.90;;;;;;5024489;28;20511;-76
2023/10/20 06:11:17;;;;;;;61.17;45.90;;;8.10;99.90;;;;;;5026534;28;20503;-77
2023/10/20 06:13:43;;;;;;;64.40;45.30;;;8.10;99.90;;;;;;5010242;28;20041;-76
2023/10/20 06:16:09;;;;;;;51.50;37.20;;;8.10;99.90;;;;;;5025711;28;20451;-77
2023/10/20 06:18:36;;;;;;;51.25;36.97;;;8.10;99.90;;;;;;5014435;28;20045;-77
2023/10/20 06:21:04;;;;;;;53.13;38.88;;;8.10;99.90;;;;;;5021960;28;20042;-77
2023/10/20 06:23:30;;;;;;;52.88;41.33;;;8.10;99.90;;;;;;5019994;28;20403;-76
2023/10/20 06:25:56;;;;;;;55.78;39.88;;;8.10;99.90;;;;;;5022849;28;20048;-78
2023/10/20 06:28:22;;;;;;;56.42;41.67;;;8.10;99.90;;;;;;5026071;28;20046;-77
2023/10/20 06:30:49;;;;;;;48.13;37.85;;;8.10;99.90;;;;;;5016375;28;20124;-82
2023/10/20 06:36:19;;;;;;;44.10;33.28;;;8.10;99.90;;;;;;5032455;28;20060;-78
2023/10/20 06:41:09;;;;;;;43.95;34.42;;;8.10;99.90;;;;;;5027922;28;20045;-79
2023/10/20 06:43:35;;;;;;;45.20;35.65;;;8.10;99.90;;;;;;5040618;28;20045;-77
2023/10/20 06:46:00;;;;;;;46.47;36.88;;;8.10;99.90;;;;;;5030756;28;20034;-79
2023/10/20 06:48:27;;;;;;;41.35;30.92;;;8.00;99.90;;;;;;5024923;28;20139;-79
2023/10/20 06:50:53;;;;;;;43.05;33.47;;;8.10;99.90;;;;;;5039233;28;20137;-79
2023/10/20 06:53:19;;;;;;;38.45;30.58;;;8.10;99.90;;;;;;5041490;28;20045;-79
2023/10/20 06:55:51;;;;;;;35.10;28.27;;;8.00;99.90;;;;;;5046337;28;20041;-80
2023/10/20 06:58:17;;;;;;;35.05;28.00;;;8.10;99.90;;;;;;5043442;28;20037;-79
2023/10/20 07:00:46;;;;;;;35.15;27.25;;;8.10;99.90;;;;;;5032713;28;20060;-78
2023/10/20 07:03:13;;;;;;;39.65;31.23;;;8.10;99.90;;;;;;5014946;28;20037;-77
2023/10/20 07:05:42;;;;;;;34.50;28.02;;;8.10;99.90;;;;;;4997433;28;20053;-77
2023/10/20 07:08:07;;;;;;;33.45;29.15;;;8.10;99.90;;;;;;5037684;28;20041;-77
2023/10/20 07:10:37;;;;;;;34.60;28.73;;;8.00;99.90;;;;;;5026138;28;20034;-77
2023/10/20 07:13:06;;;;;;;33.30;27.38;;;8.10;99.90;;;;;;5021941;28;20109;-77
2023/10/20 07:15:33;;;;;;;31.70;27.48;;;8.10;99.90;;;;;;5028548;28;20300;-78
2023/10/20 07:17:59;;;;;;;39.38;31.77;;;8.00;99.90;;;;;;5021795;28;20033;-77
2023/10/20 07:20:26;;;;;;;32.28;28.42;;;8.00;99.90;;;;;;5025992;28;20044;-79
2023/10/20 07:22:52;;;;;;;33.00;27.73;;;8.00;99.90;;;;;;5029879;28;20049;-76
2023/10/20 07:25:17;;;;;;;39.92;31.17;;;8.00;99.90;;;;;;5029709;28;20045;-77
2023/10/20 07:27:43;;;;;;;30.08;23.67;;;7.90;99.90;;;;;;4997496;28;20046;-76
2023/10/20 07:30:10;;;;;;;35.00;28.33;;;8.00;99.90;;;;;;5013723;28;20030;-77
2023/10/20 07:32:36;;;;;;;29.02;25.30;;;7.90;99.90;;;;;;5018739;28;20442;-78
2023/10/20 07:35:03;;;;;;;28.23;25.02;;;7.90;99.90;;;;;;5020414;28;20033;-77
2023/10/20 07:37:29;;;;;;;29.05;25.13;;;7.90;99.90;;;;;;5025170;28;20045;-77
2023/10/20 07:39:55;;;;;;;26.02;23.23;;;7.90;99.90;;;;;;5028319;28;20167;-78
2023/10/20 07:42:20;;;;;;;27.55;24.25;;;7.90;99.90;;;;;;5010842;28;20225;-78
2023/10/20 07:44:47;;;;;;;21.90;19.70;;;7.90;99.90;;;;;;5029278;28;20133;-76
2023/10/20 07:47:13;;;;;;;24.02;21.50;;;7.90;99.90;;;;;;5025951;28;20452;-79
2023/10/20 07:49:39;;;;;;;24.73;22.13;;;7.90;99.90;;;;;;5021817;28;20041;-80
2023/10/20 07:52:04;;;;;;;24.98;22.20;;;7.90;99.90;;;;;;5031170;28;20064;-79
2023/10/20 07:54:30;;;;;;;23.63;21.13;;;7.90;99.90;;;;;;5027068;28;20037;-78
2023/10/20 07:56:58;;;;;;;21.55;19.35;;;7.90;99.90;;;;;;5035311;28;20081;-78
2023/10/20 07:59:24;;;;;;;23.90;21.33;;;7.90;99.90;;;;;;5031362;28;20104;-79
2023/10/20 08:01:50;;;;;;;24.85;22.25;;;7.90;99.90;;;;;;5040119;28;20072;-78
2023/10/20 08:04:16;;;;;;;25.77;23.17;;;7.90;99.90;;;;;;5039168;28;20507;-81
2023/10/20 08:06:43;;;;;;;19.70;17.30;;;7.90;99.90;;;;;;5018794;28;20480;-80
2023/10/20 08:09:12;;;;;;;20.33;18.15;;;7.90;99.90;;;;;;5029448;28;20037;-80
2023/10/20 08:11:39;;;;;;;17.65;15.88;;;8.00;99.90;;;;;;5040576;28;20044;-80
2023/10/20 08:14:05;;;;;;;20.55;18.52;;;7.90;99.90;;;;;;5039400;28;20048;-81
2023/10/20 08:16:31;;;;;;;20.92;18.95;;;8.00;99.90;;;;;;5013577;28;20038;-81
2023/10/20 08:18:56;;;;;;;18.63;16.92;;;7.90;99.90;;;;;;5029076;28;20559;-81
2023/10/20 08:21:29;;;;;;;18.73;16.92;;;7.90;99.90;;;;;;5021957;28;20041;-81
2023/10/20 08:23:55;;;;;;;;;;;7.90;99.90;;;;;;5041740;28;20399;-80
2023/10/20 08:26:21;;;;;;;18.50;16.80;;;7.90;99.90;;;;;;5036535;28;19917;-82
2023/10/20 08:28:49;;;;;;;20.55;18.60;;;7.90;99.90;;;;;;5020747;28;20045;-79
2023/10/20 08:31:17;;;;;;;15.32;13.98;;;7.90;99.90;;;;;;5039861;28;20495;-83
2023/10/20 08:33:57;;;;;;;17.63;16.13;;;7.90;99.90;;;;;;5029931;28;20041;-83
2023/10/20 08:36:23;;;;;;;18.35;16.75;;;7.90;99.90;;;;;;5027517;28;20269;-85
2023/10/20 08:38:52;;;;;;;17.25;15.77;;;7.90;99.90;;;;;;5027882;28;20065;-83
2023/10/20 08:41:22;;;;;;;14.63;13.43;;;7.90;99.90;;;;;;5044419;28;20041;-83
2023/10/20 08:44:03;;;;;;;14.05;12.85;;;7.90;99.90;;;;;;5021356;28;20034;-84
2023/10/20 08:46:30;;;;;;;12.75;11.70;;;7.90;99.90;;;;;;5046032;28;20064;-84
2023/10/20 08:48:57;;;;;;;12.23;11.05;;;7.90;99.90;;;;;;5030105;28;20384;-82
2023/10/20 08:51:23;;;;;;;14.10;13.00;;;7.90;99.90;;;;;;5047253;28;20420;-83
2023/10/20 08:53:49;;;;;;;9.80;8.98;;;7.90;99.90;;;;;;5030765;28;20037;-82
2023/10/20 08:56:14;;;;;;;11.63;10.63;;;7.90;99.90;;;;;;5046663;28;20045;-81
2023/10/20 08:58:40;;;;;;;11.70;10.70;;;7.90;99.90;;;;;;5030604;28;20091;-83
2023/10/20 09:01:06;;;;;;;9.10;8.30;;;7.90;99.90;;;;;;5030973;28;20042;-82
2023/10/20 09:03:42;;;;;;;9.05;8.25;;;7.90;99.90;;;;;;5033047;28;20057;-80
2023/10/20 09:06:11;;;;;;;10.02;9.13;;;8.00;99.90;;;;;;5015844;28;20049;-82
2023/10/20 09:08:37;;;;;;;10.32;9.45;;;7.90;99.90;;;;;;5036543;28;20041;-81
2023/10/20 09:11:07;;;;;;;9.32;8.55;;;7.90;99.90;;;;;;5036336;28;20037;-83
2023/10/20 09:13:34;;;;;;;8.63;7.93;;;7.90;99.90;;;;;;5032857;28;20029;-83
2023/10/20 09:16:09;;;;;;;9.27;8.45;;;7.90;99.90;;;;;;5013561;28;20406;-83
2023/10/20 09:18:45;;;;;;;8.80;8.10;;;7.90;99.90;;;;;;5015807;28;20037;-81
2023/10/20 09:21:15;;;;;;;7.75;7.15;;;8.00;99.90;;;;;;5007382;28;20194;-83
2023/10/20 09:23:52;;;;;;;8.90;8.20;;;7.90;99.90;;;;;;5036062;28;20518;-84
2023/10/20 09:26:18;;;;;;;8.30;7.70;;;8.00;99.90;;;;;;5020126;28;20049;-83
2023/10/20 09:28:51;;;;;;;6.90;6.30;;;7.90;99.90;;;;;;5026960;28;20407;-82
2023/10/20 09:31:17;;;;;;;;;;;8.00;99.90;;;;;;5037999;28;20044;-83
2023/10/20 09:33:43;;;;;;;7.05;6.50;;;7.90;99.90;;;;;;5020966;28;20383;-81
2023/10/20 09:36:11;;;;;;;5.88;5.38;;;7.90;99.90;;;;;;5036878;28;20029;-82
2023/10/20 09:38:37;;;;;;;5.35;4.85;;;7.90;99.90;;;;;;5035635;28;20094;-83
2023/10/20 09:41:12;;;;;;;5.30;4.80;;;7.90;99.90;;;;;;5021171;28;20494;-82
2023/10/20 09:44:07;;;;;;;6.00;5.50;;;7.90;99.90;;;;;;5020255;28;20518;-82
2023/10/20 09:46:57;;;;;;;5.72;5.22;;;7.90;99.90;;;;;;5036148;28;20073;-82
2023/10/20 09:49:27;;;;;;;5.40;4.70;;;7.90;99.90;;;;;;5021617;28;20488;-83
2023/10/20 09:51:55;;;;;;;4.90;4.40;;;7.90;99.90;;;;;;5020471;28;20045;-81
2023/10/20 09:54:26;;;;;;;5.00;4.60;;;7.90;99.90;;;;;;5030198;28;20041;-83
2023/10/20 09:56:53;;;;;;;4.90;4.50;;;7.80;99.90;;;;;;5007844;28;20388;-80
2023/10/20 09:59:24;;;;;;;5.45;4.97;;;7.80;99.90;;;;;;5032112;28;20510;-82
2023/10/20 10:01:53;;;;;;;5.55;5.15;;;7.80;99.90;;;;;;5019329;28;20037;-82
2023/10/20 10:04:33;;;;;;;4.95;4.55;;;7.80;99.90;;;;;;5044875;28;20038;-83
2023/10/20 10:07:06;;;;;;;5.28;4.88;;;7.80;99.90;;;;;;5005283;28;20033;-85
2023/10/20 10:09:35;;;;;;;5.10;4.68;;;7.80;99.90;;;;;;5008411;28;20045;-83
2023/10/20 10:12:11;;;;;;;5.22;4.82;;;7.80;99.90;;;;;;5036688;28;20137;-84
2023/10/20 10:14:37;;;;;;;5.13;4.70;;;7.70;99.90;;;;;;5034808;28;20428;-84
2023/10/20 10:17:10;;;;;;;5.30;4.90;;;7.70;99.90;;;;;;5019298;28;20034;-83
2023/10/20 10:19:48;;;;;;;4.03;3.72;;;7.70;99.90;;;;;;5020081;28;20033;-83
2023/10/20 10:22:17;;;;;;;4.07;3.75;;;7.70;99.90;;;;;;5019053;28;20072;-82
2023/10/20 10:24:56;;;;;;;4.32;4.03;;;7.70;99.90;;;;;;5031112;28;20060;-82
2023/10/20 10:27:26;;;;;;;4.03;3.70;;;7.70;99.90;;;;;;5005725;28;20046;-81
2023/10/20 10:30:11;;;;;;;4.80;4.40;;;7.70;99.90;;;;;;5006282;28;20081;-83
2023/10/20 10:32:52;;;;;;;4.65;4.28;;;7.70;99.90;;;;;;5015050;28;20039;-84
2023/10/20 10:41:19;;;;;;;4.00;3.63;;;7.70;99.90;;;;;;5037405;28;20046;-80
2023/10/20 10:45:03;;;;;;;4.30;3.90;;;7.70;99.90;;;;;;4962237;28;20046;-79
2023/10/20 10:49:21;;;;;;;3.92;3.60;;;7.60;99.90;;;;;;4884727;29;20053;-80
2023/10/20 10:53:05;;;;;;;5.20;4.80;;;7.60;99.90;;;;;;4871628;29;20119;-81
2023/10/20 10:56:24;;;;;;;;;;;;;;;;;;;;;
2023/10/20 10:59:03;;;;;;;4.10;3.80;;;7.60;99.90;;;;;;4946337;28;19918;-77
2023/10/20 11:01:33;;;;;;;3.90;3.60;;;7.60;99.90;;;;;;4967815;28;20060;-78
2023/10/20 11:04:10;;;;;;;2.80;2.60;;;7.50;99.90;;;;;;4996785;28;20061;-79
2023/10/20 11:06:46;;;;;;;2.88;2.60;;;7.60;99.90;;;;;;4978617;28;20485;-80
2023/10/20 11:09:19;;;;;;;2.83;2.30;;;7.60;99.90;;;;;;4985123;28;20042;-79
2023/10/20 11:11:51;;;;;;;2.60;2.40;;;7.70;99.90;;;;;;4984613;28;20033;-78
2023/10/20 11:14:46;;;;;;;2.20;2.00;;;7.60;99.90;;;;;;4996734;28;20516;-79
2023/10/20 11:17:15;;;;;;;2.40;2.00;;;7.60;99.90;;;;;;4985846;28;20060;-79
2023/10/20 11:20:28;;;;;;;;;;;;;;;;;;;;;
2023/10/20 11:23:35;;;;;;;2.60;2.40;;;7.50;99.90;;;;;;5014064;28;20037;-81
2023/10/20 11:26:46;;;;;;;3.53;2.67;;;7.50;99.90;;;;;;4992594;28;20061;-81
2023/10/20 13:53:57;;;;;;;1.60;1.50;;;7.20;99.90;;;;;;5028207;28;20041;-78
2023/10/20 13:56:23;;;;;;;1.65;1.52;;;7.20;99.90;;;;;;4983018;28;20046;-77
2023/10/20 13:59:00;;;;;;;1.50;1.40;;;7.20;99.90;;;;;;4978788;28;20037;-78
2023/10/20 14:01:26;;;;;;;1.73;1.50;;;7.20;99.90;;;;;;4987336;28;20043;-77
2023/10/20 14:04:07;;;;;;;2.72;2.53;;;7.20;99.90;;;;;;4981330;28;20030;-78
2023/10/20 14:07:38;;;;;;;1.85;1.50;;;7.20;99.90;;;;;;4981682;28;20064;-82
2023/10/20 14:14:39;;;;;;;1.95;1.85;;;7.10;99.90;;;;;;4911588;29;20040;-81
2023/10/20 14:18:03;;;;;;;1.83;1.73;;;7.10;99.90;;;;;;4994761;28;20389;-81
2023/10/20 14:21:02;;;;;;;1.40;1.30;;;7.10;99.90;;;;;;4991632;28;20042;-80
2023/10/20 14:38:23;;;;;;;1.13;1.10;;;7.00;99.90;;;;;;4925723;29;20042;-80
2023/10/20 14:41:28;;;;;;;1.42;1.33;;;7.00;99.90;;;;;;4880332;29;20191;-80
2023/10/20 14:44:50;;;;;;;1.65;1.40;;;7.00;99.90;;;;;;4952800;28;20042;-80
2023/10/20 14:51:29;;;;;;;1.40;1.30;;;7.00;99.90;;;;;;4927914;29;20048;-81
2023/10/20 14:55:11;;;;;;;1.77;1.60;;;7.00;99.90;;;;;;4834621;29;20053;-80
2023/10/20 14:58:34;;;;;;;1.50;1.40;;;7.00;99.90;;;;;;4850503;29;20057;-83
2023/10/20 15:02:04;;;;;;;1.75;1.27;;;7.00;99.90;;;;;;4821988;29;20050;-82
2023/10/20 15:05:51;;;;;;;0.90;0.90;;;7.00;99.90;;;;;;4831393;29;20476;-81
2023/10/20 15:19:48;;;;;;;1.80;1.50;;;6.90;99.90;;;;;;4848446;29;20139;-82
2023/10/20 15:41:56;;;;;;;;;;;;;;;;;;;;;
2023/10/20 15:49:18;;;;;;;5.05;4.63;;;6.90;99.90;;;;;;4797289;29;20060;-80
2023/10/20 16:09:05;;;;;;;2.38;1.52;;;6.90;99.90;;;;;;5054765;28;20045;-81
2023/10/20 16:12:05;;;;;;;1.70;1.60;;;6.90;99.90;;;;;;5047926;28;20031;-82
2023/10/20 16:14:39;;;;;;;2.40;2.20;;;6.90;99.90;;;;;;5045590;28;20037;-82
2023/10/20 16:21:11;;;;;;;1.80;1.70;;;7.00;99.90;;;;;;4938635;28;20043;-82
2023/10/20 16:23:55;;;;;;;2.30;2.20;;;7.00;99.90;;;;;;4958538;28;20051;-81
2023/10/20 16:26:32;;;;;;;4.22;3.92;;;7.10;99.90;;;;;;5053588;28;20029;-81
2023/10/20 16:29:01;;;;;;;3.80;3.58;;;7.00;99.90;;;;;;5054222;28;20052;-80
2023/10/20 16:31:29;;;;;;;5.22;4.82;;;7.00;99.90;;;;;;5034921;28;20029;-81
2023/10/20 16:33:59;;;;;;;4.10;3.80;;;7.10;99.90;;;;;;5035657;28;20527;-81
2023/10/20 16:36:25;;;;;;;4.20;3.90;;;7.10;99.90;;;;;;5035654;28;20092;-79
2023/10/20 18:22:17;;;;;;;16.25;14.98;;;7.70;99.90;;;;;;4948955;23;20103;-82
2023/10/20 20:35:03;;;;;;;164.32;68.65;;;9.50;99.90;;;;;;5553505;23;20023;-82
2023/10/20 20:37:29;;;;;;;105.38;60.30;;;9.60;99.90;;;;;;4882154;29;20428;-82
2023/10/20 20:39:55;;;;;;;178.02;77.50;;;9.70;99.90;;;;;;4897057;29;20051;-82
2023/10/20 20:42:20;;;;;;;183.90;73.13;;;9.70;99.90;;;;;;4912192;29;20056;-83
2023/10/20 20:44:46;;;;;;;232.65;76.43;;;9.80;99.90;;;;;;4898834;29;20044;-83
2023/10/20 20:47:11;;;;;;;273.10;81.20;;;9.80;99.90;;;;;;4903298;29;20483;-81
2023/10/20 20:49:37;;;;;;;194.15;76.50;;;9.90;99.90;;;;;;4904818;29;20052;-82
2023/10/20 20:52:03;;;;;;;98.20;63.30;;;9.90;99.90;;;;;;4904423;29;20498;-82
2023/10/20 20:54:29;;;;;;;124.85;70.40;;;9.90;99.90;;;;;;4899078;29;20047;-84
2023/10/20 20:56:55;;;;;;;117.93;67.13;;;9.90;99.90;;;;;;4898655;29;20119;-82
2023/10/20 20:59:20;;;;;;;171.35;79.15;;;10.00;99.90;;;;;;4906484;29;20127;-82
2023/10/20 21:01:46;;;;;;;161.68;77.13;;;10.00;99.90;;;;;;4903917;29;20490;-81
2023/10/20 21:04:11;;;;;;;197.80;80.38;;;10.10;99.90;;;;;;4917687;29;20047;-82
2023/10/20 21:06:37;;;;;;;195.45;82.32;;;10.10;99.90;;;;;;4908608;29;20555;-82
2023/10/20 21:09:02;;;;;;;283.88;90.00;;;10.10;99.90;;;;;;4881373;29;20058;-82
2023/10/20 21:11:28;;;;;;;283.45;96.45;;;10.20;99.90;;;;;;4890614;29;20044;-82
2023/10/20 21:13:54;;;;;;;120.15;72.63;;;10.20;99.90;;;;;;4898970;29;20451;-82
2023/10/20 21:16:20;;;;;;;210.68;85.50;;;10.30;99.90;;;;;;4898352;29;20036;-82
2023/10/20 21:18:46;;;;;;;123.72;72.38;;;10.30;99.90;;;;;;4897078;29;20394;-82
2023/10/20 21:21:14;;;;;;;208.60;87.20;;;10.40;99.90;;;;;;4915890;29;20087;-82
2023/10/20 21:23:44;;;;;;;229.48;91.72;;;10.40;99.90;;;;;;4906489;29;20625;-82
2023/10/20 21:26:10;;;;;;;259.63;91.80;;;10.50;99.90;;;;;;4913444;29;20602;-82
2023/10/20 21:28:37;;;;;;;260.48;90.50;;;10.60;99.90;;;;;;4884985;29;20036;-81
2023/10/20 21:31:03;;;;;;;372.98;101.00;;;10.60;99.90;;;;;;4911395;29;20036;-82
2023/10/20 21:33:29;;;;;;;211.82;85.03;;;10.70;99.90;;;;;;4905337;29;20132;-82
2023/10/20 21:35:54;;;;;;;181.30;83.85;;;10.70;99.90;;;;;;4903973;29;20063;-82
2023/10/20 21:38:20;;;;;;;122.32;71.15;;;10.80;99.90;;;;;;4909498;29;20067;-82
2023/10/20 21:40:46;;;;;;;308.00;94.85;;;10.90;99.90;;;;;;4910030;29;20032;-83
2023/10/20 21:43:13;;;;;;;261.58;89.28;;;11.00;99.90;;;;;;4918238;29;20055;-82
2023/10/20 21:45:39;;;;;;;162.50;72.40;;;11.00;99.90;;;;;;4928614;29;20047;-82
2023/10/20 21:48:05;;;;;;;228.60;85.60;;;11.00;99.90;;;;;;4906858;29;20623;-82
2023/10/20 21:50:31;;;;;;;201.27;79.35;;;11.10;99.90;;;;;;4907213;29;20118;-82
2023/10/20 21:52:57;;;;;;;310.95;91.72;;;11.10;99.90;;;;;;4930863;29;20040;-82
2023/10/20 21:55:23;;;;;;;237.38;81.78;;;11.20;99.90;;;;;;4914595;29;20068;-82
2023/10/20 21:57:49;;;;;;;244.45;81.68;;;11.20;99.90;;;;;;4905784;29;20039;-83
2023/10/20 22:00:23;;;;;;;383.42;86.97;;;11.20;99.90;;;;;;4910943;29;20047;-83
2023/10/20 22:02:48;;;;;;;185.63;72.15;;;11.20;99.90;;;;;;4899301;29;20040;-83
2023/10/20 22:05:15;;;;;;;208.05;74.85;;;11.20;99.90;;;;;;4897716;29;20538;-82
2023/10/20 22:07:41;;;;;;;219.70;78.50;;;11.30;99.90;;;;;;4893345;29;20072;-82
2023/10/20 22:10:09;;;;;;;207.85;74.20;;;11.30;99.90;;;;;;4906741;29;20059;-82
2023/10/20 22:12:35;;;;;;;167.00;67.97;;;11.30;99.90;;;;;;4904668;29;20124;-82
2023/10/20 22:15:01;;;;;;;152.00;65.35;;;11.40;99.90;;;;;;4903074;29;20165;-82
2023/10/20 22:17:26;;;;;;;168.10;68.30;;;11.40;99.90;;;;;;4904759;29;20040;-82
2023/10/20 22:19:52;;;;;;;179.75;66.07;;;11.50;99.90;;;;;;4909995;29;20035;-82
2023/10/20 22:22:18;;;;;;;176.25;64.78;;;11.60;99.90;;;;;;4918241;29;20040;-82
2023/10/20 22:24:43;;;;;;;109.78;53.92;;;11.60;99.90;;;;;;4911090;29;20395;-82
2023/10/20 22:27:09;;;;;;;152.95;60.90;;;11.60;99.90;;;;;;4908279;29;20036;-84
2023/10/20 22:29:35;;;;;;;104.22;52.00;;;11.70;99.90;;;;;;4906347;29;20477;-82
2023/10/20 22:32:01;;;;;;;131.82;55.08;;;11.80;99.90;;;;;;4912210;29;20068;-82
2023/10/20 22:34:26;;;;;;;192.57;59.22;;;11.80;99.90;;;;;;4917674;29;20545;-82
2023/10/20 22:36:52;;;;;;;81.45;47.00;;;11.80;99.90;;;;;;4911259;29;20144;-82
2023/10/20 22:39:18;;;;;;;89.32;47.13;;;11.80;99.90;;;;;;4895846;29;20451;-82
2023/10/20 22:41:43;;;;;;;279.15;67.55;;;11.80;99.90;;;;;;4917766;29;20040;-83